»·PEaware :: ASA2522 KPSP-KSMF

ASA2522 :: KPSP-KSMF

FLIGHT INFORMATION

Flight Status: Arrived
Operator:
Alaska Airlines
More flights by this operator :: More flights under this callsign
Pilot: Dave P. (45)
Aircraft: BOEING 737-700
(B737)
More flights by this aircraft type
Origin: KPSP Palm Springs Intl
United States
Destination: KSMF Sacramento Intl
United States
More flights between these airports :: More routes between these airports
Route: +CATH1 PSP PMD J6 LANDO J5 EHF NURAY SUUTR2
File this flight plan on PilotEdge
Remarks: PBN / A1B1C1D1S1S2 DOF / 180903 REG / N737PM EET / KZOA0032 OPR / ASA PER / C RMK / TCAS SIMBRIEF
Altitude:
(Current/Filed)
32,000ft
Speed:
(Current/Filed)
466kts
Departed: 03-Sep-18 08:25 AM
Arrived: 03-Sep-18 09:36 AM
Distance/Time
Traveled:
382nm/1:11
Distance/Time
To Go:
Arrived

Flight Plot

Page will automatically refresh every two minutes.

Flight plan parsing failed; only flown route is shown


Map Options




Map Legend


Flown Route
Filed Route
Departure Airport
Arrival Airport
Navaid (VOR, NDB)
Fix

Horizontal Profiles

Position Reports

Time Latitude Longitude Heading Altitude Ground
Speed
03-Sep-18 08:07 33.823131 -116.505821 285 485ft 0kts
03-Sep-18 08:08 33.823131 -116.505821 285 485ft 0kts
03-Sep-18 08:09 33.823131 -116.505821 285 485ft 0kts
03-Sep-18 08:10 33.823131 -116.505821 285 485ft 0kts
03-Sep-18 08:11 33.823131 -116.505821 285 485ft 0kts
03-Sep-18 08:12 33.823131 -116.505821 285 485ft 0kts
03-Sep-18 08:13 33.823131 -116.505821 285 485ft 0kts
03-Sep-18 08:14 33.823131 -116.505821 285 485ft 0kts
03-Sep-18 08:15 33.823131 -116.505821 285 485ft 0kts
03-Sep-18 08:16 33.823131 -116.505821 285 485ft 0kts
03-Sep-18 08:17 33.823131 -116.505821 285 485ft 0kts
03-Sep-18 08:18 33.822725 -116.505317 346 485ft 2kts
03-Sep-18 08:19 33.822630 -116.505300 354 485ft 0kts
03-Sep-18 08:20 33.822630 -116.505300 354 485ft 0kts
03-Sep-18 08:21 33.822631 -116.505300 354 485ft 0kts
03-Sep-18 08:22 33.822570 -116.503389 143 485ft 10kts
03-Sep-18 08:23 33.818865 -116.500092 143 484ft 14kts
03-Sep-18 08:24 33.818523 -116.499073 89 485ft 0kts
03-Sep-18 08:25 33.819351 -116.498462 324 484ft 2kts
03-Sep-18 08:26 33.834980 -116.512418 323 644ft 157kts
03-Sep-18 08:27 33.871946 -116.546969 323 2964ft 193kts
03-Sep-18 08:28 33.918873 -116.516258 87 4368ft 270kts
03-Sep-18 08:29 33.876608 -116.442678 124 8047ft 281kts
03-Sep-18 08:30 33.896859 -116.366518 15 11104ft 310kts
03-Sep-18 08:31 33.977942 -116.417360 298 13104ft 374kts
03-Sep-18 08:32 34.024082 -116.531359 296 16316ft 385kts
03-Sep-18 08:33 34.071136 -116.647842 296 19465ft 389kts
03-Sep-18 08:34 34.118947 -116.766893 296 22033ft 398kts
03-Sep-18 08:35 34.167845 -116.887856 297 24237ft 405kts
03-Sep-18 08:36 34.216849 -117.009950 297 26171ft 411kts
03-Sep-18 08:37 34.266972 -117.135553 297 27864ft 419kts
03-Sep-18 08:38 34.317648 -117.263078 297 29579ft 420kts
03-Sep-18 08:39 34.367325 -117.388608 297 31826ft 408kts
03-Sep-18 08:40 34.416173 -117.512502 297 32025ft 405kts
03-Sep-18 08:41 34.464546 -117.635646 297 32024ft 404kts
03-Sep-18 08:42 34.512987 -117.758925 297 32028ft 404kts
03-Sep-18 08:43 34.560999 -117.882040 297 32025ft 404kts
03-Sep-18 08:44 34.608951 -118.005814 296 32026ft 404kts
03-Sep-18 08:45 34.670405 -118.118906 309 32028ft 402kts
03-Sep-18 08:46 34.742002 -118.223231 309 32020ft 402kts
03-Sep-18 08:47 34.814093 -118.327762 310 32034ft 402kts
03-Sep-18 08:48 34.886105 -118.431875 309 32067ft 402kts
03-Sep-18 08:49 34.957753 -118.536395 309 32098ft 402kts
03-Sep-18 08:50 35.033400 -118.637125 317 32104ft 403kts
03-Sep-18 08:51 35.119424 -118.724728 318 32091ft 403kts
03-Sep-18 08:52 35.205822 -118.812656 318 32046ft 403kts
03-Sep-18 08:53 35.292123 -118.900164 318 31991ft 403kts
03-Sep-18 08:54 35.378240 -118.988141 318 31948ft 403kts
03-Sep-18 08:55 35.464828 -119.076082 321 31929ft 404kts
03-Sep-18 08:57 35.565172 -119.139639 332 31931ft 409kts
03-Sep-18 08:58 35.669428 -119.196336 332 31930ft 408kts
03-Sep-18 08:59 35.773264 -119.252591 332 31930ft 408kts
03-Sep-18 09:00 35.877200 -119.308675 332 31932ft 407kts
03-Sep-18 09:01 35.981200 -119.364981 332 31935ft 407kts
03-Sep-18 09:02 36.085128 -119.421459 332 31935ft 409kts
03-Sep-18 09:03 36.189118 -119.478144 332 31931ft 409kts
03-Sep-18 09:04 36.293386 -119.535156 332 31930ft 409kts
03-Sep-18 09:05 36.397346 -119.592028 331 31930ft 409kts
03-Sep-18 09:06 36.501522 -119.649408 331 31931ft 408kts
03-Sep-18 09:07 36.604454 -119.708461 326 31930ft 406kts
03-Sep-18 09:08 36.699905 -119.782776 324 31921ft 405kts
03-Sep-18 09:09 36.795602 -119.858169 324 31922ft 406kts
03-Sep-18 09:10 36.890966 -119.933383 324 31929ft 406kts
03-Sep-18 09:11 36.986344 -120.008440 324 31931ft 405kts
03-Sep-18 09:12 37.082003 -120.083942 324 31931ft 405kts
03-Sep-18 09:13 37.177171 -120.159634 324 31914ft 406kts
03-Sep-18 09:14 37.271651 -120.235023 324 29516ft 400kts
03-Sep-18 09:15 37.366133 -120.310471 324 26876ft 400kts
03-Sep-18 09:16 37.459561 -120.385477 325 24583ft 396kts
03-Sep-18 09:17 37.543986 -120.467796 319 22550ft 376kts
03-Sep-18 09:18 37.624764 -120.549160 320 20566ft 364kts
03-Sep-18 09:19 37.704248 -120.628909 320 19432ft 366kts
03-Sep-18 09:20 37.783223 -120.708516 320 18094ft 361kts
03-Sep-18 09:21 37.860853 -120.786805 320 16678ft 355kts
03-Sep-18 09:22 37.937840 -120.864872 320 15245ft 352kts
03-Sep-18 09:23 38.013684 -120.942182 320 13808ft 347kts
03-Sep-18 09:24 38.086534 -121.020592 312 12349ft 339kts
03-Sep-18 09:25 38.145234 -121.108073 309 11067ft 309kts
03-Sep-18 09:26 38.198824 -121.187696 310 9864ft 288kts
03-Sep-18 09:27 38.251766 -121.263471 312 8699ft 283kts
03-Sep-18 09:28 38.302613 -121.334486 312 7583ft 266kts
03-Sep-18 09:29 38.351346 -121.403228 312 6337ft 258kts
03-Sep-18 09:30 38.396181 -121.466860 312 5316ft 227kts
03-Sep-18 09:31 38.437437 -121.524476 312 4210ft 200kts
03-Sep-18 09:32 38.475136 -121.576271 312 3004ft 196kts
03-Sep-18 09:33 38.522516 -121.604225 358 3005ft 199kts
03-Sep-18 09:34 38.574438 -121.603284 0 2150ft 179kts
03-Sep-18 09:35 38.621979 -121.602496 0 1235ft 157kts
03-Sep-18 09:36 38.661785 -121.601839 0 480ft 136kts
03-Sep-18 09:37 38.695785 -121.601269 0 36ft 50kts
03-Sep-18 09:38 38.697380 -121.599519 91 36ft 10kts
03-Sep-18 09:39 38.697303 -121.593649 91 36ft 15kts
03-Sep-18 09:40 38.696487 -121.590626 184 36ft 5kts
03-Sep-18 09:41 38.696395 -121.590635 184 36ft 0kts
03-Sep-18 09:42 38.696395 -121.590635 184 36ft 0kts

Navigation Log

Ident Type
Flight plan parsing failed, navigation log unavailable